Time;durP1;ratioP1;P1;durP2;ratioP2;P2;SDS_P1;SDS_P2;PMS_P1;PMS_P2;Temp;Humidity;BMP_temperature;BMP_pressure;BME280_temperature;BME280_humidity;BME280_pressure;Samples;Min_cycle;Max_cycle;Signal;HPM_P1;HPM_P2
2021/03/04 00:00:40;;;;;;;45.65;34.03;;;;;;;22.63;17.07;95367.25;5036986;28;20124;-46
2021/03/04 00:03:08;;;;;;;45.90;34.70;;;;;;;23.13;16.49;95362.50;5036673;28;20045;-49
2021/03/04 00:05:36;;;;;;;44.53;33.63;;;;;;;22.62;17.04;95365.69;5036671;28;20468;-46
2021/03/04 00:08:04;;;;;;;46.13;33.15;;;;;;;22.76;16.94;95360.78;5036647;28;20369;-45
2021/03/04 00:10:32;;;;;;;50.60;34.00;;;;;;;23.62;16.09;95349.69;5040590;28;20048;-51
2021/03/04 00:12:59;;;;;;;45.13;33.05;;;;;;;23.03;16.81;95348.56;5056355;28;20051;-46
2021/03/04 00:15:29;;;;;;;45.47;32.95;;;;;;;23.07;16.49;95354.78;5055326;28;20051;-44
2021/03/04 00:17:56;;;;;;;46.97;31.80;;;;;;;22.19;17.20;95352.28;5055720;28;20474;-46
2021/03/04 00:20:28;;;;;;;43.30;31.90;;;;;;;22.11;17.53;95356.59;5056370;28;20261;-48
2021/03/04 00:22:55;;;;;;;45.22;32.80;;;;;;;22.34;17.10;95351.56;5056139;28;20048;-45
2021/03/04 00:25:28;;;;;;;41.05;31.15;;;;;;;22.43;17.36;95353.00;5056238;28;20391;-44
2021/03/04 00:27:56;;;;;;;41.17;31.15;;;;;;;22.49;17.10;95356.22;5037239;28;20361;-46
2021/03/04 00:30:24;;;;;;;45.05;31.40;;;;;;;22.38;17.17;95350.59;5036248;28;20057;-46
2021/03/04 00:32:52;;;;;;;44.58;30.98;;;;;;;22.14;17.38;95340.75;5036083;28;20052;-44
2021/03/04 00:35:19;;;;;;;44.53;30.58;;;;;;;21.95;17.67;95343.19;5036321;28;20053;-47
2021/03/04 00:37:46;;;;;;;48.05;32.13;;;;;;;22.34;17.35;95343.56;5035860;28;20440;-47
2021/03/04 00:40:16;;;;;;;48.67;31.80;;;;;;;22.21;17.46;95339.41;5037608;28;20057;-46
2021/03/04 00:42:43;;;;;;;43.47;32.45;;;;;;;21.28;18.25;95336.50;5055824;28;20395;-46
2021/03/04 00:45:21;;;;;;;45.00;32.38;;;;;;;22.26;17.43;95336.50;5055968;28;20059;-47
2021/03/04 00:47:48;;;;;;;41.20;30.80;;;;;;;21.82;17.78;95323.00;5038667;28;20340;-48
2021/03/04 00:50:18;;;;;;;39.92;30.20;;;;;;;21.97;17.70;95325.00;5035995;28;20045;-67
2021/03/04 00:52:45;;;;;;;38.40;28.60;;;;;;;21.64;18.18;95325.13;5035847;28;20046;-44
2021/03/04 00:55:13;;;;;;;40.45;28.85;;;;;;;21.72;17.87;95324.22;5035802;28;20448;-47
2021/03/04 00:57:40;;;;;;;38.85;28.13;;;;;;;21.65;17.85;95320.59;5035443;28;20045;-46
2021/03/04 01:00:08;;;;;;;37.13;26.70;;;;;;;21.67;17.95;95311.16;5035299;28;20041;-46
2021/03/04 01:02:35;;;;;;;43.00;27.45;;;;;;;21.60;18.03;95310.16;5034746;28;20050;-45
2021/03/04 01:05:04;;;;;;;39.83;28.13;;;;;;;22.28;17.64;95297.00;5035679;28;20372;-46
2021/03/04 01:07:32;;;;;;;36.50;27.13;;;;;;;22.02;17.72;95295.47;5035476;28;20052;-45
2021/03/04 01:10:04;;;;;;;37.80;27.20;;;;;;;21.65;18.32;95291.31;5035851;28;20049;-43
2021/03/04 01:12:31;;;;;;;37.45;28.05;;;;;;;21.77;17.76;95292.06;5034374;28;20042;-62
2021/03/04 01:14:59;;;;;;;36.50;27.40;;;;;;;21.56;18.10;95288.75;5035413;28;20041;-45
2021/03/04 01:17:26;;;;;;;39.30;28.02;;;;;;;21.48;18.36;95287.75;5035244;28;20087;-45
2021/03/04 01:19:53;;;;;;;38.80;27.40;;;;;;;22.12;17.56;95286.28;5035459;28;20064;-46
2021/03/04 01:22:20;;;;;;;38.55;28.23;;;;;;;21.23;18.22;95286.97;5035477;28;20057;-46
2021/03/04 01:24:47;;;;;;;35.83;27.95;;;;;;;21.18;18.75;95283.72;5035517;28;20041;-51
2021/03/04 01:27:14;;;;;;;36.80;27.45;;;;;;;20.96;18.83;95276.16;5035136;28;20052;-45
2021/03/04 01:29:41;;;;;;;39.28;29.25;;;;;;;21.12;18.50;95275.22;5035333;28;20045;-44
2021/03/04 01:32:08;;;;;;;37.67;28.92;;;;;;;21.62;18.14;95276.81;5035226;28;20049;-44
2021/03/04 01:34:36;;;;;;;36.58;28.13;;;;;;;20.98;18.73;95264.09;5035333;28;20041;-54
2021/03/04 01:37:03;;;;;;;41.70;29.42;;;;;;;20.08;19.72;95264.78;5034987;28;20041;-44
2021/03/04 01:39:30;;;;;;;37.47;28.38;;;;;;;20.48;19.39;95262.41;5035201;28;20041;-45
2021/03/04 01:41:57;;;;;;;42.28;28.90;;;;;;;21.04;18.77;95259.34;5036577;28;20053;-45
2021/03/04 01:44:24;;;;;;;38.40;27.95;;;;;;;20.63;19.18;95263.69;5035214;28;20053;-46
2021/03/04 01:46:51;;;;;;;34.10;26.45;;;;;;;20.87;18.90;95258.44;5034875;28;20045;-45
2021/03/04 01:49:19;;;;;;;40.17;29.15;;;;;;;20.75;18.76;95255.75;5034211;28;20052;-46
2021/03/04 01:51:46;;;;;;;38.53;30.25;;;;;;;20.31;19.31;95250.06;5034118;28;20368;-45
2021/03/04 01:54:14;;;;;;;38.25;29.75;;;;;;;21.48;18.11;95245.22;5035065;28;20076;-47
2021/03/04 01:56:41;;;;;;;40.28;28.65;;;;;;;20.82;18.98;95248.03;5033854;28;20053;-44
2021/03/04 01:59:08;;;;;;;37.20;28.08;;;;;;;21.18;18.29;95241.19;5034901;28;20041;-48
2021/03/04 02:01:35;;;;;;;33.33;25.52;;;;;;;21.29;18.38;95237.00;5034786;28;20368;-45
2021/03/04 02:04:03;;;;;;;38.95;27.17;;;;;;;20.31;19.13;95238.66;5033313;28;20049;-50
2021/03/04 02:07:06;;;;;;;32.15;25.80;;;;;;;21.26;18.50;95237.69;5034189;28;20052;-46
2021/03/04 02:09:34;;;;;;;36.80;26.92;;;;;;;21.01;18.52;95233.41;4963897;28;20147;-45
2021/03/04 02:12:19;;;;;;;36.35;26.13;;;;;;;20.80;18.66;95241.47;5036863;28;20049;-45
2021/03/04 02:14:51;;;;;;;37.63;26.58;;;;;;;20.69;18.68;95241.13;5053905;28;20056;-44
2021/03/04 02:17:20;;;;;;;35.97;26.88;;;;;;;20.70;18.73;95240.03;5056789;28;20370;-44
2021/03/04 02:19:58;;;;;;;39.90;27.20;;;;;;;20.57;18.99;95238.44;5057172;28;20497;-47
2021/03/04 02:22:55;;;;;;;39.53;27.40;;;;;;;20.58;18.98;95224.84;5056890;28;20049;-44
2021/03/04 02:25:40;;;;;;;37.88;27.40;;;;;;;20.09;19.69;95239.78;5044707;28;20049;-46
2021/03/04 02:28:08;;;;;;;37.28;27.48;;;;;;;20.39;19.32;95237.03;5057630;28;20052;-45
2021/03/04 02:30:36;;;;;;;40.03;27.10;;;;;;;20.91;18.70;95232.75;5058377;28;20052;-45
2021/03/04 02:33:30;;;;;;;39.15;27.23;;;;;;;20.63;19.16;95229.16;5058278;28;20435;-46
2021/03/04 02:35:59;;;;;;;37.05;27.35;;;;;;;21.03;18.52;95229.31;5053969;28;20057;-46
2021/03/04 02:38:27;;;;;;;36.30;26.75;;;;;;;20.62;19.24;95230.28;5058338;28;20052;-46
2021/03/04 02:40:57;;;;;;;36.38;26.48;;;;;;;20.50;19.45;95228.34;5057869;28;20052;-65
2021/03/04 02:43:26;;;;;;;35.22;26.02;;;;;;;20.58;19.16;95240.00;5057180;28;20490;-46
2021/03/04 02:45:54;;;;;;;40.47;27.50;;;;;;;20.44;19.36;95220.91;5054341;28;20048;-46
2021/03/04 02:48:22;;;;;;;32.58;24.95;;;;;;;20.15;19.51;95232.41;5037435;28;20046;-44
2021/03/04 02:50:51;;;;;;;35.88;26.67;;;;;;;20.90;18.64;95230.44;5038301;28;20060;-50
2021/03/04 02:53:19;;;;;;;36.15;26.90;;;;;;;20.08;19.50;95232.16;5037037;28;20064;-45
2021/03/04 02:55:46;;;;;;;39.15;28.02;;;;;;;19.86;19.68;95228.72;5036886;28;20053;-47
2021/03/04 02:58:14;;;;;;;37.92;28.38;;;;;;;21.54;18.04;95233.22;5037040;28;20074;-47
2021/03/04 03:00:42;;;;;;;40.28;27.73;;;;;;;20.14;19.41;95226.31;5037934;28;20053;-45
2021/03/04 03:03:14;;;;;;;54.15;29.25;;;;;;;19.26;20.26;95229.84;5036746;28;20061;-46
2021/03/04 03:05:46;;;;;;;48.80;28.27;;;;;;;19.79;19.96;95235.66;5037766;28;20048;-44
2021/03/04 03:08:17;;;;;;;48.55;28.63;;;;;;;20.33;19.22;95231.94;5036855;28;20297;-45
2021/03/04 03:10:46;;;;;;;46.70;29.65;;;;;;;19.80;19.79;95234.56;5037581;28;20045;-51
2021/03/04 03:13:15;;;;;;;42.40;28.45;;;;;;;19.66;20.06;95226.81;5037501;28;20046;-45
2021/03/04 03:15:42;;;;;;;44.95;28.25;;;;;;;19.38;20.37;95227.28;5037047;28;20064;-47
2021/03/04 03:18:11;;;;;;;41.50;27.70;;;;;;;19.16;20.51;95226.78;5037774;28;20064;-46
2021/03/04 03:20:38;;;;;;;38.72;27.15;;;;;;;19.54;20.16;95219.59;5037623;28;20333;-44
2021/03/04 03:23:05;;;;;;;39.47;27.02;;;;;;;19.59;19.72;95221.28;5037420;28;20053;-45
2021/03/04 03:25:32;;;;;;;41.35;27.45;;;;;;;19.36;20.00;95218.09;5036544;28;20049;-46
2021/03/04 03:27:59;;;;;;;40.08;25.92;;;;;;;18.82;20.89;95209.16;5037329;28;20056;-46
2021/03/04 03:30:28;;;;;;;34.97;24.55;;;;;;;19.30;20.39;95214.09;5037468;28;20041;-45
2021/03/04 03:33:01;;;;;;;37.67;25.17;;;;;;;19.65;19.80;95209.38;5036279;28;20046;-46
2021/03/04 03:35:30;;;;;;;33.80;24.42;;;;;;;19.82;22.03;95213.78;5036542;28;20084;-43
2021/03/04 03:37:59;;;;;;;38.88;25.15;;;;;;;19.62;20.10;95210.78;5037214;28;20057;-46
2021/03/04 03:40:27;;;;;;;39.80;26.58;;;;;;;19.51;20.12;95217.53;5036932;28;20116;-44
2021/03/04 03:42:56;;;;;;;40.33;25.73;;;;;;;19.94;19.53;95216.47;5037043;28;20052;-45
2021/03/04 03:45:30;;;;;;;39.78;25.52;;;;;;;19.41;20.05;95204.66;5036194;28;20056;-47
2021/03/04 03:47:57;;;;;;;34.10;24.23;;;;;;;19.96;19.82;95208.97;5036792;28;20049;-44
2021/03/04 03:50:25;;;;;;;37.85;24.98;;;;;;;19.66;20.05;95214.34;5037118;28;20390;-44
2021/03/04 03:52:53;;;;;;;37.92;24.83;;;;;;;20.11;19.52;95213.69;5035815;28;20053;-46
2021/03/04 03:55:20;;;;;;;39.20;24.27;;;;;;;19.09;20.44;95209.50;5036383;28;20392;-45
2021/03/04 03:57:48;;;;;;;32.92;24.13;;;;;;;19.66;19.68;95209.03;5036924;28;20045;-45
2021/03/04 04:00:23;;;;;;;34.97;22.50;;;;;;;19.54;20.04;95214.28;5035671;28;20480;-46
2021/03/04 04:03:10;;;;;;;34.33;24.05;;;;;;;20.20;19.24;95211.72;5036771;28;20064;-45
2021/03/04 04:05:38;;;;;;;35.78;24.02;;;;;;;19.54;19.88;95206.31;5036531;28;20046;-66
2021/03/04 04:08:05;;;;;;;31.65;23.48;;;;;;;20.11;19.41;95207.59;5054600;28;20056;-45
2021/03/04 04:10:35;;;;;;;35.28;23.38;;;;;;;19.89;19.46;95203.41;5056279;28;20329;-44
2021/03/04 04:13:03;;;;;;;31.80;23.40;;;;;;;20.69;18.63;95198.63;5056336;28;20055;-45
2021/03/04 04:15:31;;;;;;;39.28;24.58;;;;;;;19.33;20.23;95200.97;5056448;28;20044;-43
2021/03/04 04:18:00;;;;;;;34.83;23.48;;;;;;;19.07;20.54;95203.75;5039335;28;20053;-47
2021/03/04 04:20:28;;;;;;;38.72;25.00;;;;;;;19.59;19.69;95198.19;5036481;28;20069;-46
2021/03/04 04:22:57;;;;;;;40.55;24.05;;;;;;;19.48;19.87;95190.88;5036268;28;20503;-44
2021/03/04 04:25:25;;;;;;;39.67;24.60;;;;;;;19.25;20.14;95190.38;5035541;28;20053;-46
2021/03/04 04:27:54;;;;;;;37.28;23.88;;;;;;;19.40;19.65;95190.63;5036151;28;20049;-45
2021/03/04 04:30:25;;;;;;;31.77;23.35;;;;;;;18.91;20.71;95186.81;5036845;28;20344;-44
2021/03/04 04:32:53;;;;;;;36.33;23.90;;;;;;;19.69;19.66;95187.16;5036128;28;20053;-44
2021/03/04 04:35:20;;;;;;;33.88;24.33;;;;;;;19.19;20.19;95173.13;5036261;28;20065;-45
2021/03/04 04:37:47;;;;;;;33.10;22.73;;;;;;;19.23;20.23;95179.31;5035838;28;20045;-44
2021/03/04 04:40:14;;;;;;;31.45;22.90;;;;;;;19.60;19.78;95181.16;5037121;28;20440;-44
2021/03/04 04:42:41;;;;;;;31.73;23.50;;;;;;;19.00;20.38;95174.31;5055843;28;20053;-44
2021/03/04 04:45:11;;;;;;;38.63;23.77;;;;;;;18.56;20.91;95170.25;5055437;28;20048;-45
2021/03/04 04:47:38;;;;;;;32.30;22.48;;;;;;;19.06;20.24;95172.28;5042573;28;20048;-45
2021/03/04 04:50:06;;;;;;;37.97;23.98;;;;;;;18.58;20.75;95162.78;5035933;28;20053;-44
2021/03/04 04:52:33;;;;;;;30.35;22.40;;;;;;;19.21;20.46;95170.94;5035848;28;20045;-44
2021/03/04 04:55:01;;;;;;;33.90;21.08;;;;;;;18.66;21.03;95166.50;5035849;28;20045;-46
2021/03/04 04:57:29;;;;;;;30.63;21.80;;;;;;;19.38;20.11;95162.88;5035575;28;20041;-47
2021/03/04 04:59:57;;;;;;;37.75;24.75;;;;;;;19.51;19.94;95161.84;5034724;28;20060;-49
2021/03/04 05:02:24;;;;;;;35.53;24.75;;;;;;;18.88;20.60;95155.66;5035139;28;20060;-44
2021/03/04 05:04:51;;;;;;;31.95;19.77;;;;;;;22.49;18.96;95151.06;5024155;28;20077;-47
2021/03/04 05:07:18;;;;;;;25.38;20.33;;;;;;;24.66;16.78;95157.59;5044460;28;20053;-46
2021/03/04 05:09:45;;;;;;;31.65;20.98;;;;;;;25.78;15.51;95154.34;5035972;28;20060;-43
2021/03/04 05:12:13;;;;;;;26.92;19.45;;;;;;;26.85;14.55;95142.81;5035357;28;20041;-57
2021/03/04 05:14:40;;;;;;;28.65;23.30;;;;;;;25.34;14.48;95154.09;5035729;28;20479;-50
2021/03/04 05:17:07;;;;;;;36.63;24.92;;;;;;;23.23;15.92;95145.97;5035210;28;20360;-48
2021/03/04 05:19:34;;;;;;;38.83;24.77;;;;;;;21.49;17.95;95142.25;5034579;28;20045;-53
2021/03/04 05:22:01;;;;;;;39.53;25.05;;;;;;;20.82;18.16;95149.72;5035428;28;20460;-47
2021/03/04 05:24:28;;;;;;;36.88;24.42;;;;;;;20.76;18.09;95143.03;5035530;28;20057;-47
2021/03/04 05:26:56;;;;;;;38.05;25.40;;;;;;;19.42;19.78;95148.66;5035157;28;20364;-48
2021/03/04 05:29:23;;;;;;;42.38;29.27;;;;;;;19.98;19.40;95140.41;5035400;28;20453;-47
2021/03/04 05:31:50;;;;;;;41.88;26.95;;;;;;;19.29;20.18;95143.59;5034213;28;20049;-45
2021/03/04 05:34:17;;;;;;;35.22;25.75;;;;;;;19.64;19.76;95142.28;5035316;28;20380;-48
2021/03/04 05:36:44;;;;;;;38.55;24.25;;;;;;;19.75;20.19;95139.22;5035070;28;20060;-44
2021/03/04 05:39:11;;;;;;;41.63;25.92;;;;;;;19.10;21.00;95131.56;5035231;28;20056;-46
2021/03/04 05:41:38;;;;;;;35.60;24.52;;;;;;;18.92;21.11;95137.25;5048186;28;20049;-45
2021/03/04 05:44:06;;;;;;;35.95;24.23;;;;;;;19.65;20.74;95141.19;5055174;28;20048;-47
2021/03/04 05:46:37;;;;;;;34.58;24.38;;;;;;;20.27;20.37;95134.97;5052452;28;20059;-46
2021/03/04 05:49:06;;;;;;;34.10;23.52;;;;;;;19.23;21.32;95134.28;5036245;28;20049;-45
2021/03/04 05:51:36;;;;;;;31.00;22.35;;;;;;;20.57;22.38;95134.88;5039229;28;20049;-44
2021/03/04 05:54:05;;;;;;;40.88;23.10;;;;;;;20.06;23.45;95138.81;5038396;28;20049;-46
2021/03/04 05:56:35;;;;;;;32.67;24.70;;;;;;;20.36;21.12;95134.13;5039212;28;20053;-47
2021/03/04 05:59:02;;;;;;;29.55;22.70;;;;;;;20.92;21.28;95135.19;5039081;28;20041;-45
2021/03/04 06:01:29;;;;;;;32.67;23.35;;;;;;;19.88;21.85;95143.50;5039367;28;20056;-46
2021/03/04 06:03:57;;;;;;;33.33;24.15;;;;;;;20.56;20.11;95135.97;5055189;28;20048;-47
2021/03/04 06:06:24;;;;;;;37.65;27.42;;;;;;;20.50;20.67;95130.06;5057543;28;20428;-46
2021/03/04 06:08:51;;;;;;;42.60;29.35;;;;;;;20.12;20.51;95138.28;5058770;28;20056;-46
2021/03/04 06:11:18;;;;;;;44.85;31.48;;;;;;;21.43;18.95;95131.06;5058662;28;20041;-49
2021/03/04 06:13:46;;;;;;;51.10;34.30;;;;;;;21.33;18.49;95128.06;5058338;28;20044;-49
2021/03/04 06:16:13;;;;;;;54.38;35.45;;;;;;;21.83;19.04;95127.59;5057787;28;20436;-47
2021/03/04 06:18:42;;;;;;;68.43;45.72;;;;;;;21.51;18.48;95127.50;5058814;28;20049;-50
2021/03/04 06:21:23;;;;;;;61.40;44.53;;;;;;;22.29;17.70;95128.88;5040128;28;20045;-47
2021/03/04 06:23:51;;;;;;;64.78;39.92;;;;;;;22.11;18.13;95133.72;5038177;28;20045;-47
2021/03/04 06:26:38;;;;;;;53.38;38.85;;;;;;;21.27;18.85;95132.09;5038099;28;20045;-48
2021/03/04 06:29:12;;;;;;;58.50;37.25;;;;;;;22.63;18.21;95131.97;5038107;28;20518;-50
2021/03/04 06:31:40;;;;;;;50.83;35.97;;;;;;;22.49;18.68;95142.28;5037665;28;20053;-47
2021/03/04 06:34:21;;;;;;;48.38;34.88;;;;;;;22.48;18.61;95130.09;5044333;28;20052;-45
2021/03/04 06:36:52;;;;;;;47.85;33.90;;;;;;;22.82;18.44;95133.97;5058683;28;20055;-50
2021/03/04 06:39:19;;;;;;;48.35;35.50;;;;;;;23.27;18.12;95128.94;5044978;28;20057;-48
2021/03/04 06:41:56;;;;;;;50.53;35.08;;;;;;;23.59;17.75;95128.84;5038530;28;20049;-44
2021/03/04 06:44:23;;;;;;;45.17;36.03;;;;;;;24.75;16.64;95134.06;5039160;28;20046;-46
2021/03/04 06:46:50;;;;;;;51.75;36.35;;;;;;;23.15;18.07;95136.25;5037458;28;20049;-45
2021/03/04 06:49:18;;;;;;;58.38;41.33;;;;;;;23.20;17.86;95134.13;5038514;28;20516;-45
2021/03/04 06:51:46;;;;;;;51.42;39.53;;;;;;;23.73;16.89;95129.16;5036857;28;20052;-47
2021/03/04 06:54:24;;;;;;;45.67;36.30;;;;;;;23.56;17.24;95125.00;5052645;28;20051;-52
2021/03/04 06:56:51;;;;;;;42.33;33.42;;;;;;;23.76;17.29;95127.69;5058201;28;20359;-47
2021/03/04 06:59:18;;;;;;;44.92;33.60;;;;;;;24.58;16.17;95125.41;5055886;28;20049;-46
2021/03/04 07:01:45;;;;;;;51.20;35.20;;;;;;;23.46;17.30;95124.75;5036044;28;20060;-53
2021/03/04 07:04:14;;;;;;;45.72;34.35;;;;;;;24.91;16.38;95116.75;5051820;28;20048;-50
2021/03/04 07:06:46;;;;;;;45.63;35.28;;;;;;;25.96;15.58;95119.72;5058080;28;20048;-51
2021/03/04 07:09:14;;;;;;;46.45;36.17;;;;;;;25.46;15.81;95114.50;5038055;28;20068;-50
2021/03/04 07:11:44;;;;;;;44.60;33.13;;;;;;;24.97;15.78;95119.13;5037779;28;20452;-48
2021/03/04 07:14:12;;;;;;;39.03;31.15;;;;;;;25.12;15.68;95115.56;5037655;28;20050;-47
2021/03/04 07:16:44;;;;;;;38.25;30.42;;;;;;;24.90;15.57;95114.44;5036950;28;20049;-49
2021/03/04 07:19:13;;;;;;;41.83;32.03;;;;;;;25.20;15.86;95117.19;5036026;28;20448;-52
2021/03/04 07:21:42;;;;;;;38.55;31.67;;;;;;;26.15;15.02;95110.72;5037385;28;20060;-51
2021/03/04 07:24:09;;;;;;;41.00;32.47;;;;;;;24.52;16.33;95105.44;5037631;28;20045;-52
2021/03/04 07:26:36;;;;;;;40.63;33.38;;;;;;;25.72;15.07;95102.22;5037776;28;20056;-53
2021/03/04 07:29:09;;;;;;;41.55;35.45;;;;;;;25.20;15.61;95099.25;5037614;28;20368;-52
2021/03/04 07:31:42;;;;;;;;;;;;;;;25.18;15.56;95098.06;5051848;28;20041;-48
2021/03/04 07:34:17;;;;;;;41.42;36.72;;;;;;;24.98;15.76;95097.34;5043685;28;19917;-49
2021/03/04 07:36:54;;;;;;;39.38;35.55;;;;;;;24.84;15.63;95089.91;5036463;28;20468;-53
2021/03/04 07:39:56;;;;;;;44.55;40.05;;;;;;;26.08;15.41;95090.00;5037401;28;20049;-51
2021/03/04 07:42:24;;;;;;;43.55;32.08;;;;;;;25.31;15.69;95085.25;5037322;28;20116;-53
2021/03/04 07:44:52;;;;;;;36.60;30.20;;;;;;;25.97;14.46;95078.41;5055265;28;20060;-48
2021/03/04 07:47:27;;;;;;;40.70;31.55;;;;;;;25.87;14.68;95071.03;5037379;28;20057;-49
2021/03/04 07:49:55;;;;;;;50.30;37.03;;;;;;;25.64;14.86;95071.13;5037332;28;20448;-52
2021/03/04 07:52:23;;;;;;;47.45;38.58;;;;;;;25.50;14.94;95061.81;5036950;28;20045;-50
2021/03/04 07:54:55;;;;;;;45.65;36.83;;;;;;;25.74;14.92;95065.91;5054593;28;20060;-53
2021/03/04 07:57:26;;;;;;;49.58;35.42;;;;;;;26.13;14.57;95065.56;5057110;28;20048;-51
2021/03/04 07:59:54;;;;;;;46.67;36.60;;;;;;;26.20;14.76;95054.13;5056529;28;20049;-53
2021/03/04 08:02:31;;;;;;;40.55;33.70;;;;;;;25.69;15.01;95060.09;5056683;28;20341;-48
2021/03/04 08:05:13;;;;;;;40.85;30.55;;;;;;;26.51;14.41;95052.88;5038156;28;20045;-52
2021/03/04 08:07:46;;;;;;;43.17;33.22;;;;;;;27.51;13.06;95049.69;5036919;28;20084;-51
2021/03/04 08:10:14;;;;;;;44.40;34.53;;;;;;;27.13;13.55;95050.28;5037222;28;20049;-50
2021/03/04 08:13:00;;;;;;;41.72;34.67;;;;;;;27.79;13.23;95050.97;5036345;28;20052;-53
2021/03/04 08:15:34;;;;;;;47.65;35.30;;;;;;;27.15;13.88;95053.34;5036740;28;20056;-46
2021/03/04 08:18:03;;;;;;;45.38;35.38;;;;;;;27.51;13.35;95047.00;5036755;28;20052;-48
2021/03/04 08:20:30;;;;;;;43.67;35.50;;;;;;;27.50;13.69;95045.47;5035942;28;20049;-51
2021/03/04 08:22:58;;;;;;;43.60;34.38;;;;;;;26.79;14.39;95044.28;5037400;28;20050;-50
2021/03/04 08:25:26;;;;;;;40.45;32.85;;;;;;;27.13;14.12;95034.94;5056556;28;20052;-49
2021/03/04 08:27:54;;;;;;;42.47;34.10;;;;;;;27.12;13.90;95027.28;5056502;28;20041;-46
2021/03/04 08:30:37;;;;;;;39.15;31.60;;;;;;;27.26;13.48;95030.00;5056080;28;20072;-46
2021/03/04 08:33:12;;;;;;;42.13;30.38;;;;;;;27.23;13.30;95023.50;5054030;28;20052;-47
2021/03/04 08:35:43;;;;;;;34.20;28.90;;;;;;;27.97;12.44;95026.84;5036423;28;20057;-48
2021/03/04 08:38:12;;;;;;;39.80;30.15;;;;;;;27.94;12.79;95026.44;5036340;28;20049;-48
2021/03/04 08:40:44;;;;;;;39.00;28.88;;;;;;;28.61;11.96;95019.59;5036274;28;20049;-55
2021/03/04 08:43:12;;;;;;;;;;;;;;;28.69;11.93;95023.81;5036390;28;20052;-53
2021/03/04 08:45:40;;;;;;;29.90;23.80;;;;;;;27.84;12.32;95015.66;5036330;28;20285;-50
2021/03/04 08:48:09;;;;;;;32.78;24.90;;;;;;;29.75;10.98;95009.28;5036234;28;20048;-49
2021/03/04 08:50:39;;;;;;;34.67;26.15;;;;;;;28.48;12.29;95002.31;5036114;28;20052;-49
2021/03/04 08:53:11;;;;;;;31.95;27.38;;;;;;;28.23;12.54;95003.06;5037130;28;20387;-48
2021/03/04 08:55:51;;;;;;;38.85;25.88;;;;;;;29.11;11.88;94998.75;5054873;28;20056;-50
2021/03/04 08:58:31;;;;;;;35.35;26.45;;;;;;;28.89;12.51;95004.59;5055750;28;20044;-51
2021/03/04 09:01:01;;;;;;;33.07;27.30;;;;;;;29.36;11.46;94982.50;5055450;28;20373;-54
2021/03/04 09:03:32;;;;;;;39.55;26.83;;;;;;;28.19;12.53;94990.78;5055223;28;20295;-51
2021/03/04 09:06:16;;;;;;;34.33;28.23;;;;;;;28.21;12.72;94989.22;5055807;28;20056;-51
2021/03/04 09:08:46;;;;;;;37.45;29.05;;;;;;;27.32;13.46;94982.88;5055703;28;20048;-51
2021/03/04 09:11:35;;;;;;;33.67;27.33;;;;;;;27.81;14.16;94976.13;5055587;28;20075;-49
2021/03/04 09:14:06;;;;;;;42.55;27.52;;;;;;;27.74;14.07;94989.56;5045053;28;20494;-50
2021/03/04 09:16:50;;;;;;;36.53;28.27;;;;;;;28.57;12.44;94967.72;5042106;28;20049;-48
2021/03/04 09:19:30;;;;;;;38.38;28.52;;;;;;;28.30;13.18;94963.91;5035824;28;20052;-52
2021/03/04 09:22:08;;;;;;;38.75;28.92;;;;;;;28.09;13.08;94965.41;5035475;28;20045;-50
2021/03/04 09:24:37;;;;;;;39.70;27.60;;;;;;;28.09;12.67;94968.09;5028698;28;20384;-51
2021/03/04 09:27:09;;;;;;;37.63;27.38;;;;;;;29.41;11.76;94949.81;5034588;28;20045;-52
2021/03/04 09:29:39;;;;;;;35.67;28.88;;;;;;;30.42;10.86;94947.97;5035573;28;20056;-51
2021/03/04 09:32:07;;;;;;;38.10;28.67;;;;;;;30.80;10.87;94938.00;5053319;28;20103;-49
2021/03/04 09:34:38;;;;;;;35.78;28.42;;;;;;;28.84;12.56;94944.59;5055016;28;20367;-52
2021/03/04 09:37:23;;;;;;;41.57;33.33;;;;;;;28.95;12.87;94943.84;5055455;28;20452;-49
2021/03/04 09:39:51;;;;;;;42.22;27.83;;;;;;;29.52;12.50;94925.53;5055211;28;20284;-52
2021/03/04 09:42:40;;;;;;;35.88;28.38;;;;;;;29.37;12.33;94927.50;5043180;28;20060;-54
2021/03/04 09:45:11;;;;;;;36.58;28.60;;;;;;;30.71;11.21;94926.16;5051270;28;20053;-51
2021/03/04 09:47:46;;;;;;;36.13;27.90;;;;;;;31.06;10.31;94927.69;5055005;28;20049;-51
2021/03/04 09:50:24;;;;;;;36.05;28.40;;;;;;;30.90;10.31;94914.75;5043839;28;20052;-54
2021/03/04 09:53:08;;;;;;;36.60;28.10;;;;;;;28.91;11.65;94916.19;5035142;28;20444;-49
2021/03/04 09:55:39;;;;;;;37.55;29.38;;;;;;;28.90;12.00;94909.28;5035294;28;20064;-52
2021/03/04 09:58:11;;;;;;;38.47;28.88;;;;;;;29.72;11.50;94904.25;5035274;28;20045;-51
2021/03/04 10:00:38;;;;;;;42.47;29.13;;;;;;;29.86;11.02;94898.75;5039183;28;20048;-51
2021/03/04 10:03:13;;;;;;;36.40;28.67;;;;;;;29.31;11.76;94896.00;5054858;28;20380;-49
2021/03/04 10:05:51;;;;;;;41.05;30.00;;;;;;;28.79;12.03;94893.91;5041368;28;20112;-49
2021/03/04 10:08:18;;;;;;;34.47;27.52;;;;;;;29.10;12.46;94888.78;5035191;28;20049;-49
2021/03/04 10:10:48;;;;;;;38.05;27.98;;;;;;;29.01;12.49;94878.47;5040550;28;20317;-50
2021/03/04 10:13:26;;;;;;;37.33;28.40;;;;;;;30.04;11.55;94872.44;5054965;28;20040;-47
2021/03/04 10:15:54;;;;;;;49.63;37.20;;;;;;;29.41;12.14;94863.66;5054505;28;20386;-52
2021/03/04 10:18:21;;;;;;;39.78;29.90;;;;;;;29.28;11.75;94862.56;5054872;28;20041;-48
2021/03/04 10:20:48;;;;;;;36.83;28.52;;;;;;;30.27;10.91;94857.59;5049108;28;20053;-49
2021/03/04 10:23:17;;;;;;;36.25;29.77;;;;;;;31.34;10.21;94851.75;5034903;28;20048;-53
2021/03/04 10:25:44;;;;;;;37.60;27.67;;;;;;;29.95;11.54;94842.47;5034978;28;20041;-50
2021/03/04 10:28:11;;;;;;;34.10;27.83;;;;;;;30.16;11.14;94838.06;5034915;28;20060;-53
2021/03/04 10:30:39;;;;;;;36.47;28.35;;;;;;;29.11;11.82;94833.81;5040475;28;20040;-53
2021/03/04 10:33:06;;;;;;;40.47;29.30;;;;;;;29.50;12.08;94827.44;5051001;28;20049;-52
2021/03/04 10:35:35;;;;;;;33.53;27.92;;;;;;;30.40;11.24;94828.94;5036745;28;20056;-49
2021/03/04 10:38:03;;;;;;;37.97;28.80;;;;;;;31.20;10.50;94825.69;5038650;28;20049;-50
2021/03/04 10:40:31;;;;;;;38.10;28.38;;;;;;;32.07;9.66;94815.88;5040554;28;20369;-49
2021/03/04 10:42:58;;;;;;;32.13;27.77;;;;;;;30.77;10.75;94808.53;5058349;28;20057;-50
2021/03/04 10:45:25;;;;;;;43.65;27.48;;;;;;;30.42;10.95;94804.28;5058457;28;20045;-50
2021/03/04 10:47:53;;;;;;;36.17;28.33;;;;;;;29.61;11.90;94803.88;5058434;28;20049;-52
2021/03/04 10:50:21;;;;;;;34.92;27.67;;;;;;;29.79;12.58;94791.03;5040294;28;20057;-49
2021/03/04 10:52:48;;;;;;;42.67;29.63;;;;;;;29.59;12.26;94782.72;5057138;28;20053;-48
2021/03/04 10:55:17;;;;;;;40.25;32.25;;;;;;;30.36;11.77;94795.88;5041122;28;20048;-49
2021/03/04 10:57:44;;;;;;;36.08;30.90;;;;;;;30.48;11.26;94787.25;5038115;28;20052;-49
2021/03/04 11:00:13;;;;;;;39.75;29.38;;;;;;;31.11;10.86;94790.31;5037819;28;20052;-54
2021/03/04 11:02:40;;;;;;;37.67;30.98;;;;;;;31.37;10.76;94779.94;5057206;28;20367;-51
2021/03/04 11:05:08;;;;;;;36.70;30.48;;;;;;;31.12;10.47;94769.47;5046101;28;20052;-54
2021/03/04 11:07:35;;;;;;;105.97;86.10;;;;;;;30.25;11.75;94762.88;5038066;28;20053;-49
2021/03/04 11:10:05;;;;;;;55.88;43.00;;;;;;;30.95;11.60;94758.53;5008560;28;20050;-50
2021/03/04 11:12:32;;;;;;;38.75;31.42;;;;;;;30.84;11.62;94749.81;5006224;28;20503;-52
2021/03/04 11:14:59;;;;;;;36.67;28.15;;;;;;;31.29;11.10;94755.75;4998559;28;20052;-52
2021/03/04 11:17:26;;;;;;;33.90;27.63;;;;;;;31.59;10.84;94748.72;4997525;28;20053;-49
2021/03/04 11:19:53;;;;;;;36.03;26.27;;;;;;;32.15;10.12;94744.25;4998420;28;20073;-50
2021/03/04 11:22:21;;;;;;;33.70;26.95;;;;;;;31.52;10.32;94732.63;4997928;28;20046;-50
2021/03/04 11:24:48;;;;;;;32.35;26.98;;;;;;;31.64;10.03;94732.03;4998305;28;20046;-50
2021/03/04 11:27:18;;;;;;;35.10;26.60;;;;;;;31.59;10.31;94717.06;4998302;28;20054;-51
2021/03/04 11:29:47;;;;;;;31.90;25.30;;;;;;;31.43;9.99;94718.88;4998261;28;20052;-49